Time;durP1;ratioP1;P1;durP2;ratioP2;P2;SDS_P1;SDS_P2;PMS_P1;PMS_P2;Temp;Humidity;BMP_temperature;BMP_pressure;BME280_temperature;BME280_humidity;BME280_pressure;Samples;Min_cycle;Max_cycle;Signal;HPM_P1;HPM_P2
2023/03/09 00:01:37;;;;;;;2.00;1.20;;;;;;;11.93;92.80;96241.34;4999145;28;102690;-61
2023/03/09 00:04:06;;;;;;;1.83;1.20;;;;;;;12.06;92.62;96238.94;4997708;28;102975;-61
2023/03/09 00:06:34;;;;;;;1.73;1.23;;;;;;;11.99;92.18;96227.41;4997524;28;103334;-61
2023/03/09 00:09:04;;;;;;;2.83;1.63;;;;;;;12.13;91.87;96234.56;4997494;28;102662;-61
2023/03/09 00:11:33;;;;;;;1.07;0.90;;;;;;;11.99;92.18;96232.72;4998046;28;102666;-61
2023/03/09 00:14:01;;;;;;;1.83;1.00;;;;;;;12.08;92.27;96247.50;4996946;28;104299;-60
2023/03/09 00:16:30;;;;;;;3.67;1.27;;;;;;;11.85;94.08;96253.81;4998811;28;103318;-61
2023/03/09 00:18:58;;;;;;;4.80;1.27;;;;;;;11.84;94.19;96263.59;4995935;28;102634;-61
2023/03/09 00:21:39;;;;;;;1.80;1.10;;;;;;;12.08;93.28;96263.41;4998869;28;103338;-61
2023/03/09 00:24:09;;;;;;;3.47;1.20;;;;;;;11.86;95.19;96295.97;4996128;28;104365;-61
2023/03/09 00:26:40;;;;;;;2.33;1.37;;;;;;;11.83;95.43;96317.50;4995011;28;103183;-61
2023/03/09 00:29:11;;;;;;;1.90;0.97;;;;;;;11.65;95.67;96338.06;5011277;28;102626;-63
2023/03/09 00:31:39;;;;;;;2.80;1.00;;;;;;;11.85;95.46;96341.94;4998591;28;102738;-63
2023/03/09 00:34:08;;;;;;;1.80;1.07;;;;;;;12.02;94.83;96340.00;4997978;28;104141;-63
2023/03/09 00:36:36;;;;;;;2.70;0.90;;;;;;;11.71;95.29;96345.34;4998376;28;103185;-63
2023/03/09 00:39:05;;;;;;;1.37;0.87;;;;;;;11.97;94.75;96345.84;4996030;28;102912;-63
2023/03/09 00:41:34;;;;;;;0.97;0.70;;;;;;;11.81;95.26;96355.69;4996679;28;103599;-63
2023/03/09 00:44:04;;;;;;;3.17;1.00;;;;;;;12.03;93.81;96366.31;4997256;28;103604;-63
2023/03/09 00:46:34;;;;;;;1.43;0.80;;;;;;;11.98;93.96;96371.31;4997089;28;103283;-63
2023/03/09 00:49:05;;;;;;;2.03;1.00;;;;;;;11.92;94.60;96374.66;4989950;28;102735;-63
2023/03/09 00:51:39;;;;;;;1.57;1.17;;;;;;;11.95;93.77;96381.41;4994983;28;102751;-63
2023/03/09 00:54:11;;;;;;;1.17;0.77;;;;;;;12.01;93.51;96365.63;4996610;28;103279;-63
2023/03/09 00:56:39;;;;;;;2.30;0.70;;;;;;;12.07;93.04;96359.66;4992163;28;105069;-63
2023/03/09 00:59:10;;;;;;;1.03;0.80;;;;;;;11.94;94.29;96363.88;4992022;28;102686;-63
2023/03/09 01:01:38;;;;;;;1.30;0.77;;;;;;;12.00;93.42;96358.72;4996175;28;102667;-63
2023/03/09 01:04:07;;;;;;;3.27;1.07;;;;;;;11.83;93.91;96357.16;4998091;28;104114;-63
2023/03/09 01:06:36;;;;;;;1.47;1.00;;;;;;;11.77;93.29;96365.81;4996167;28;103166;-63
2023/03/09 01:09:05;;;;;;;0.77;0.77;;;;;;;11.85;93.51;96357.81;4997264;28;102637;-63
2023/03/09 01:11:34;;;;;;;2.27;0.70;;;;;;;11.70;93.21;96370.16;4995385;28;102754;-61
2023/03/09 01:14:03;;;;;;;0.40;0.40;;;;;;;11.57;91.02;96372.47;4993781;28;104022;-61
2023/03/09 01:16:32;;;;;;;1.33;0.70;;;;;;;11.51;89.50;96375.81;4994993;28;103252;-61
2023/03/09 01:19:00;;;;;;;0.50;0.40;;;;;;;11.62;89.41;96363.03;4993686;28;102942;-60
2023/03/09 01:21:29;;;;;;;0.67;0.37;;;;;;;11.40;87.14;96370.91;4995621;28;102751;-61
2023/03/09 01:23:57;;;;;;;0.70;0.40;;;;;;;11.40;85.78;96352.41;4995072;28;102945;-63
2023/03/09 01:26:28;;;;;;;1.27;0.50;;;;;;;11.35;85.51;96360.03;4992323;28;103300;-61
2023/03/09 01:28:56;;;;;;;1.10;0.53;;;;;;;11.41;84.57;96359.34;4995454;28;102809;-61
2023/03/09 01:31:24;;;;;;;1.03;0.40;;;;;;;11.38;84.18;96359.69;4989201;28;103993;-60
2023/03/09 01:33:53;;;;;;;1.37;0.30;;;;;;;11.15;83.61;96364.06;4992252;28;103319;-61
2023/03/09 01:36:24;;;;;;;0.30;0.30;;;;;;;11.23;83.44;96378.06;4992902;28;102956;-61
2023/03/09 01:38:52;;;;;;;1.33;0.47;;;;;;;11.35;82.07;96375.88;5009679;27;102642;-61
2023/03/09 01:41:22;;;;;;;0.70;0.30;;;;;;;11.47;82.79;96393.03;4992597;28;103661;-61
2023/03/09 01:43:52;;;;;;;1.07;0.40;;;;;;;11.42;83.53;96392.72;4993415;28;103327;-61
2023/03/09 01:46:30;;;;;;;1.67;0.40;;;;;;;11.45;82.52;96384.44;4993915;28;104397;-61
2023/03/09 01:49:05;;;;;;;0.77;0.50;;;;;;;11.52;82.48;96378.28;4995379;28;102653;-60
2023/03/09 01:51:37;;;;;;;0.40;0.40;;;;;;;11.15;83.96;96380.75;5010290;28;102980;-60
2023/03/09 01:54:09;;;;;;;0.80;0.60;;;;;;;11.24;83.86;96384.19;4990196;28;104601;-60
2023/03/09 01:56:39;;;;;;;0.30;0.30;;;;;;;11.24;83.46;96389.47;4990526;28;103236;-60
2023/03/09 01:59:10;;;;;;;0.57;0.40;;;;;;;11.24;84.56;96411.44;4989545;28;102657;-61
2023/03/09 02:01:40;;;;;;;0.83;0.40;;;;;;;11.19;84.43;96413.78;4992525;28;102690;-60
2023/03/09 02:04:17;;;;;;;0.47;0.43;;;;;;;11.20;83.93;96415.41;4992413;28;103342;-60
2023/03/09 02:06:45;;;;;;;0.70;0.40;;;;;;;11.19;83.50;96408.50;4994158;28;103214;-60
2023/03/09 02:09:22;;;;;;;1.40;0.40;;;;;;;11.37;82.94;96395.03;4992133;28;102677;-61
2023/03/09 02:11:51;;;;;;;1.03;0.53;;;;;;;11.24;82.80;96394.75;4992052;28;102783;-60
2023/03/09 02:14:21;;;;;;;0.93;0.30;;;;;;;11.42;82.18;96379.50;4996626;28;103909;-61
2023/03/09 02:16:49;;;;;;;0.30;0.30;;;;;;;11.10;82.19;96376.97;4995090;28;103122;-60
2023/03/09 02:19:31;;;;;;;0.40;0.30;;;;;;;11.20;81.38;96381.06;4992312;28;102632;-61
2023/03/09 02:22:00;;;;;;;0.30;0.30;;;;;;;11.28;81.04;96374.94;4994399;28;102724;-60
2023/03/09 02:24:38;;;;;;;0.43;0.30;;;;;;;11.33;80.51;96372.59;4991942;28;103241;-60
2023/03/09 02:27:15;;;;;;;0.93;0.30;;;;;;;11.26;81.11;96382.19;4994780;28;103176;-60
2023/03/09 02:29:44;;;;;;;0.73;0.40;;;;;;;11.21;81.13;96380.06;4994503;28;102566;-61
2023/03/09 02:32:15;;;;;;;0.40;0.30;;;;;;;11.33;80.51;96372.59;4994438;28;102951;-61
2023/03/09 02:34:44;;;;;;;1.60;0.30;;;;;;;11.30;79.99;96388.78;4994573;28;103839;-60
2023/03/09 02:37:27;;;;;;;0.37;0.37;;;;;;;11.14;79.09;96371.19;4989812;28;104999;-60
2023/03/09 02:39:57;;;;;;;1.23;0.40;;;;;;;11.29;78.71;96371.28;4989855;28;102898;-60
2023/03/09 02:42:28;;;;;;;0.40;0.30;;;;;;;11.29;78.09;96373.91;4995300;28;102940;-61
2023/03/09 02:45:00;;;;;;;0.50;0.40;;;;;;;11.42;78.02;96382.16;4992121;28;103915;-60
2023/03/09 02:47:30;;;;;;;0.93;0.40;;;;;;;11.38;77.99;96370.25;4992823;28;103180;-61
2023/03/09 02:49:59;;;;;;;0.57;0.37;;;;;;;11.36;77.99;96377.53;4997605;28;103056;-61
2023/03/09 02:52:27;;;;;;;0.60;0.43;;;;;;;11.37;78.49;96387.09;4995845;28;104034;-60
2023/03/09 02:54:55;;;;;;;0.23;0.23;;;;;;;11.26;78.88;96403.34;4994947;28;103395;-61
2023/03/09 02:57:23;;;;;;;0.40;0.20;;;;;;;11.17;78.74;96418.38;4994454;28;103197;-60
2023/03/09 02:59:53;;;;;;;1.60;0.33;;;;;;;11.39;78.54;96430.06;4997895;28;102580;-60
2023/03/09 03:02:20;;;;;;;0.30;0.30;;;;;;;11.34;79.43;96422.63;4993190;28;102798;-61
2023/03/09 03:04:52;;;;;;;0.40;0.20;;;;;;;11.23;80.37;96436.22;4993697;28;103192;-61
2023/03/09 03:07:22;;;;;;;0.67;0.40;;;;;;;11.27;80.58;96436.69;4993503;28;103273;-62
2023/03/09 03:09:50;;;;;;;1.17;0.30;;;;;;;11.21;80.93;96445.31;4995101;28;102913;-61
2023/03/09 03:12:19;;;;;;;0.70;0.40;;;;;;;11.20;82.05;96462.16;4996631;28;103977;-60
2023/03/09 03:14:46;;;;;;;0.20;0.20;;;;;;;11.30;81.74;96474.19;4996799;28;103177;-61
2023/03/09 03:17:17;;;;;;;0.50;0.37;;;;;;;11.25;82.93;96484.47;4995236;28;103390;-61
2023/03/09 03:19:45;;;;;;;0.30;0.30;;;;;;;11.10;83.59;96503.78;4996122;28;102802;-61
2023/03/09 03:22:13;;;;;;;0.50;0.40;;;;;;;11.10;83.93;96524.94;4995262;28;102687;-61
2023/03/09 03:24:44;;;;;;;2.00;1.00;;;;;;;11.16;83.84;96538.31;4994959;28;103742;-61
2023/03/09 03:27:12;;;;;;;0.20;0.20;;;;;;;10.96;85.16;96556.31;4994439;28;103461;-61
2023/03/09 03:29:40;;;;;;;1.40;0.40;;;;;;;11.10;85.10;96569.84;4996233;28;102730;-61
2023/03/09 03:32:09;;;;;;;1.03;0.33;;;;;;;11.00;87.63;96580.59;5000549;28;103966;-61
2023/03/09 03:34:38;;;;;;;0.50;0.30;;;;;;;11.03;87.02;96575.78;4992884;28;103282;-61
2023/03/09 03:37:06;;;;;;;0.70;0.40;;;;;;;10.77;86.79;96572.47;4996205;28;103222;-61
2023/03/09 03:39:35;;;;;;;0.57;0.40;;;;;;;10.68;86.04;96577.91;4996989;28;102750;-61
2023/03/09 03:42:05;;;;;;;0.40;0.40;;;;;;;10.89;84.97;96584.34;4994333;28;103403;-61
2023/03/09 03:44:34;;;;;;;0.70;0.50;;;;;;;10.72;84.25;96574.75;4994341;28;104005;-61
2023/03/09 03:47:02;;;;;;;0.70;0.50;;;;;;;10.75;84.73;96589.47;4992587;28;103056;-61
2023/03/09 03:49:31;;;;;;;2.83;0.60;;;;;;;10.53;84.88;96601.44;4994837;28;102604;-61
2023/03/09 03:52:03;;;;;;;1.93;0.40;;;;;;;10.63;84.09;96604.78;4996384;28;103711;-61
2023/03/09 03:54:31;;;;;;;1.40;0.60;;;;;;;10.57;83.80;96608.06;4995643;28;104021;-61
2023/03/09 03:57:06;;;;;;;1.93;0.57;;;;;;;10.58;84.26;96593.91;4995842;28;103564;-61
2023/03/09 03:59:37;;;;;;;1.63;0.80;;;;;;;10.61;84.41;96604.09;4996424;28;102807;-61
2023/03/09 04:02:05;;;;;;;0.53;0.37;;;;;;;10.58;82.77;96604.47;4995739;28;104164;-61
2023/03/09 04:04:33;;;;;;;1.33;0.60;;;;;;;10.64;83.45;96609.06;4992308;28;103255;-61
2023/03/09 04:07:08;;;;;;;2.40;0.60;;;;;;;10.73;83.21;96629.22;4993019;28;103373;-61
2023/03/09 04:09:37;;;;;;;1.13;0.83;;;;;;;10.58;82.84;96625.56;4993515;28;102677;-61
2023/03/09 04:12:08;;;;;;;2.33;0.70;;;;;;;10.70;83.34;96634.00;4995569;28;103045;-61
2023/03/09 04:14:39;;;;;;;1.73;0.77;;;;;;;10.62;83.88;96642.75;4994117;28;103241;-61
2023/03/09 04:17:09;;;;;;;4.13;0.73;;;;;;;10.56;83.98;96648.66;4995200;28;105087;-61
2023/03/09 04:19:38;;;;;;;5.70;0.87;;;;;;;10.55;84.13;96651.47;4996507;28;102767;-61
2023/03/09 04:22:10;;;;;;;3.17;0.80;;;;;;;10.57;83.86;96662.69;4992869;28;102694;-61
2023/03/09 04:24:38;;;;;;;4.30;0.90;;;;;;;10.72;83.44;96674.31;4998141;28;103340;-61
2023/03/09 04:27:07;;;;;;;2.50;1.00;;;;;;;10.71;83.44;96686.66;4996528;28;103416;-61
2023/03/09 04:29:42;;;;;;;4.07;1.00;;;;;;;10.85;82.56;96686.06;4988482;28;102758;-61
2023/03/09 04:32:11;;;;;;;4.20;1.27;;;;;;;10.50;82.72;96696.81;4990432;28;104067;-61
2023/03/09 04:34:42;;;;;;;3.67;1.10;;;;;;;10.61;82.08;96717.63;4991263;28;105251;-61
2023/03/09 04:37:13;;;;;;;3.00;1.40;;;;;;;10.63;81.96;96718.34;4995344;28;103335;-61
2023/03/09 04:39:41;;;;;;;4.57;1.27;;;;;;;10.77;81.98;96730.09;4992985;28;102773;-61
2023/03/09 04:42:09;;;;;;;8.87;2.50;;;;;;;10.71;81.99;96741.28;4984135;28;103919;-60
2023/03/09 04:44:37;;;;;;;6.07;1.30;;;;;;;10.56;81.71;96748.16;4994350;28;103339;-61
2023/03/09 04:47:07;;;;;;;4.13;1.17;;;;;;;10.56;81.41;96748.97;4994519;28;103368;-61
2023/03/09 04:49:35;;;;;;;5.00;1.13;;;;;;;10.62;81.04;96758.09;5011459;28;102703;-61
2023/03/09 04:52:04;;;;;;;3.70;1.40;;;;;;;10.42;81.69;96766.22;4989689;28;103972;-61
2023/03/09 04:54:34;;;;;;;6.17;1.40;;;;;;;10.56;80.77;96775.38;4993744;28;104136;-61
2023/03/09 04:57:03;;;;;;;3.43;1.60;;;;;;;10.43;80.65;96770.53;4995039;28;102972;-61
2023/03/09 04:59:31;;;;;;;4.87;1.43;;;;;;;10.62;79.99;96776.56;4995549;28;102723;-59
2023/03/09 05:02:00;;;;;;;6.10;1.50;;;;;;;10.61;80.35;96772.28;4989253;28;103717;-64
2023/03/09 05:04:37;;;;;;;6.40;1.77;;;;;;;10.51;79.78;96780.31;4988825;28;103657;-62
2023/03/09 05:07:06;;;;;;;7.37;1.80;;;;;;;10.51;79.92;96772.38;4991844;28;103180;-62
2023/03/09 05:09:35;;;;;;;5.80;1.80;;;;;;;10.62;78.55;96798.53;4995158;28;102912;-62
2023/03/09 05:12:04;;;;;;;5.77;2.03;;;;;;;10.52;79.06;96800.47;4997196;28;103840;-62
2023/03/09 05:14:35;;;;;;;3.53;1.47;;;;;;;10.55;79.04;96797.50;4991725;28;103334;-61
2023/03/09 05:17:03;;;;;;;5.37;1.70;;;;;;;10.52;79.33;96805.75;4996525;28;105158;-62
2023/03/09 05:19:33;;;;;;;4.33;1.57;;;;;;;10.50;79.29;96797.13;4986051;28;102905;-62
2023/03/09 05:22:01;;;;;;;6.60;1.30;;;;;;;10.38;79.32;96824.78;4990471;28;102808;-62
2023/03/09 05:24:31;;;;;;;6.30;1.63;;;;;;;10.45;79.01;96825.81;4989898;28;104138;-66
2023/03/09 05:27:02;;;;;;;5.77;1.50;;;;;;;10.52;78.58;96836.59;4993484;28;102983;-66
2023/03/09 05:29:33;;;;;;;5.03;1.40;;;;;;;10.43;78.98;96844.44;5008987;28;102845;-66
2023/03/09 05:32:02;;;;;;;4.10;1.30;;;;;;;10.47;78.62;96837.03;4991835;28;103541;-67
2023/03/09 05:34:32;;;;;;;4.23;1.43;;;;;;;10.42;78.68;96841.94;4993995;28;103326;-67
2023/03/09 05:37:00;;;;;;;6.13;1.50;;;;;;;10.55;78.59;96852.94;4985026;28;103190;-67
2023/03/09 05:39:31;;;;;;;4.33;1.57;;;;;;;10.47;78.60;96860.78;4984863;28;103419;-66
2023/03/09 05:41:59;;;;;;;3.73;1.40;;;;;;;10.51;79.20;96867.44;4987683;28;103446;-66
2023/03/09 05:44:35;;;;;;;6.00;1.60;;;;;;;10.65;78.68;96874.78;4987763;28;104445;-67
2023/03/09 05:47:04;;;;;;;3.83;1.60;;;;;;;10.71;79.02;96876.81;4992033;28;104965;-66
2023/03/09 05:49:36;;;;;;;5.13;1.63;;;;;;;10.90;77.86;96879.25;4985251;28;102796;-67
2023/03/09 05:52:04;;;;;;;5.13;1.67;;;;;;;10.72;78.36;96875.81;4993643;28;103129;-66
2023/03/09 05:54:35;;;;;;;4.47;1.33;;;;;;;10.90;78.00;96900.38;4993192;28;103496;-67
2023/03/09 05:57:10;;;;;;;2.43;1.23;;;;;;;10.62;78.12;96884.81;4990601;28;103162;-67
2023/03/09 05:59:40;;;;;;;5.03;1.60;;;;;;;10.68;78.23;96890.31;4985467;28;102736;-67
2023/03/09 06:02:08;;;;;;;4.20;1.30;;;;;;;10.76;77.73;96900.94;4988146;28;102890;-66
2023/03/09 06:04:40;;;;;;;4.67;1.60;;;;;;;10.76;77.89;96908.88;4986542;28;103283;-67
2023/03/09 06:07:10;;;;;;;4.30;1.37;;;;;;;10.85;77.84;96915.03;4987532;28;104655;-67
2023/03/09 06:09:43;;;;;;;5.53;1.43;;;;;;;10.74;78.38;96916.13;4985644;28;103061;-66
2023/03/09 06:12:20;;;;;;;5.33;1.63;;;;;;;10.81;77.88;96917.16;4993960;28;103012;-67
2023/03/09 06:14:52;;;;;;;4.90;1.40;;;;;;;10.92;77.58;96924.81;4992262;28;104541;-66
2023/03/09 06:17:24;;;;;;;5.07;1.90;;;;;;;10.91;77.16;96925.81;4993255;28;103477;-67
2023/03/09 06:19:53;;;;;;;7.77;1.90;;;;;;;10.98;77.61;96928.66;4918803;28;103497;-68
2023/03/09 06:22:22;;;;;;;4.30;1.50;;;;;;;10.96;77.28;96931.47;4970471;28;102704;-68
2023/03/09 06:24:51;;;;;;;8.40;1.83;;;;;;;11.07;77.20;96928.56;4973316;28;103265;-68
2023/03/09 06:27:20;;;;;;;3.47;1.37;;;;;;;11.05;77.37;96929.69;4973616;28;103035;-68
2023/03/09 06:29:48;;;;;;;9.30;2.23;;;;;;;10.91;77.40;96923.19;4960352;27;102832;-68
2023/03/09 06:32:18;;;;;;;7.93;1.77;;;;;;;10.94;77.46;96924.69;4995495;28;103147;-68
2023/03/09 06:34:46;;;;;;;5.13;1.60;;;;;;;11.10;77.05;96934.50;4989760;28;104105;-68
2023/03/09 06:37:17;;;;;;;4.47;1.50;;;;;;;11.12;76.83;96935.16;4996673;27;103409;-68
2023/03/09 06:39:49;;;;;;;4.30;1.30;;;;;;;11.19;76.95;96938.84;4992228;28;102714;-68
2023/03/09 06:42:18;;;;;;;4.03;1.83;;;;;;;11.22;76.06;96938.53;4977315;28;104291;-68
2023/03/09 06:44:50;;;;;;;4.17;1.30;;;;;;;11.38;75.71;96938.63;4991958;28;104013;-68
2023/03/09 06:47:23;;;;;;;5.87;1.80;;;;;;;11.30;74.83;96930.66;4994960;28;103171;-68
2023/03/09 06:49:57;;;;;;;4.43;1.20;;;;;;;11.41;74.89;96936.50;4990522;28;102781;-68
2023/03/09 06:52:27;;;;;;;7.93;1.67;;;;;;;11.44;74.46;96943.28;4988902;28;102717;-68
2023/03/09 06:54:55;;;;;;;4.67;1.50;;;;;;;11.46;74.46;96943.94;4991446;28;104096;-68
2023/03/09 06:57:44;;;;;;;4.50;1.73;;;;;;;11.34;75.26;96951.31;4990727;28;104009;-68
2023/03/09 07:00:13;;;;;;;4.90;1.93;;;;;;;11.39;74.68;96964.09;4990941;28;102720;-68
2023/03/09 07:02:44;;;;;;;7.53;1.63;;;;;;;11.36;73.94;96970.53;4996069;28;103035;-68
2023/03/09 07:05:12;;;;;;;4.67;1.70;;;;;;;11.45;73.68;96968.75;4992915;28;103368;-68
2023/03/09 07:07:42;;;;;;;6.43;1.80;;;;;;;11.38;72.83;96962.41;4986723;28;103512;-68
2023/03/09 07:10:11;;;;;;;7.17;1.70;;;;;;;11.48;72.23;96968.44;4990764;28;104568;-68
2023/03/09 07:12:39;;;;;;;5.37;1.80;;;;;;;11.68;71.57;96988.34;4988793;28;103026;-68
2023/03/09 07:15:09;;;;;;;4.03;1.43;;;;;;;12.02;70.20;96994.47;4987171;28;103214;-68
2023/03/09 07:17:37;;;;;;;4.93;1.20;;;;;;;12.09;70.03;96997.31;4996543;28;103182;-68
2023/03/09 07:20:07;;;;;;;4.07;1.33;;;;;;;12.08;69.81;96990.34;4994587;28;102757;-68
2023/03/09 07:22:35;;;;;;;4.30;1.17;;;;;;;12.37;69.01;96981.97;4984867;28;103992;-67
2023/03/09 07:25:03;;;;;;;3.63;1.50;;;;;;;12.51;68.19;96979.53;4993329;28;103275;-68
2023/03/09 07:27:31;;;;;;;4.50;1.20;;;;;;;12.68;68.81;96988.31;4989145;28;103197;-68
2023/03/09 07:29:59;;;;;;;6.57;1.40;;;;;;;12.19;70.96;96984.75;4986678;28;103022;-68
2023/03/09 07:32:27;;;;;;;3.70;1.60;;;;;;;12.26;71.95;96996.38;4989937;28;102751;-67
2023/03/09 07:34:55;;;;;;;4.07;1.30;;;;;;;12.28;71.72;96999.66;4990111;28;103465;-68
2023/03/09 07:37:25;;;;;;;5.40;2.17;;;;;;;12.32;72.07;97016.06;4988459;28;103215;-67
2023/03/09 07:39:53;;;;;;;3.80;1.70;;;;;;;12.42;71.56;97022.03;4989357;28;102763;-68
2023/03/09 07:42:21;;;;;;;3.53;1.50;;;;;;;13.00;70.58;97016.63;4991451;28;102855;-68
2023/03/09 07:45:36;;;;;;;5.80;1.63;;;;;;;12.95;69.53;97014.47;4982303;28;103223;-68
2023/03/09 07:48:05;;;;;;;8.87;2.23;;;;;;;13.12;69.65;97026.78;4997183;28;103398;-68
2023/03/09 07:50:35;;;;;;;6.00;1.73;;;;;;;12.86;68.47;97030.53;4992816;28;102774;-67
2023/03/09 07:53:05;;;;;;;4.20;1.40;;;;;;;12.84;68.74;97036.00;4991626;28;104386;-67
2023/03/09 07:55:34;;;;;;;4.33;1.57;;;;;;;13.06;68.29;97040.66;4994105;28;103398;-68
2023/03/09 07:58:02;;;;;;;6.67;1.70;;;;;;;13.13;66.17;97044.34;4993228;28;103850;-67
2023/03/09 08:00:31;;;;;;;4.37;1.23;;;;;;;12.99;66.43;97041.50;4999306;28;102946;-68
2023/03/09 08:03:00;;;;;;;2.07;1.00;;;;;;;13.88;63.17;97050.16;4992717;28;102690;-67
2023/03/09 08:05:29;;;;;;;4.17;1.53;;;;;;;13.44;64.33;97039.19;4996557;28;103894;-68
2023/03/09 08:07:57;;;;;;;6.73;2.20;;;;;;;13.44;65.01;97041.00;4998495;28;103349;-67
2023/03/09 08:10:26;;;;;;;5.87;1.40;;;;;;;13.10;65.06;97052.63;4992553;28;102638;-68
2023/03/09 08:12:54;;;;;;;4.73;1.20;;;;;;;13.07;65.29;97060.03;4995498;28;102710;-68
2023/03/09 08:15:23;;;;;;;3.67;1.13;;;;;;;13.27;65.18;97078.16;4996296;28;103253;-67
2023/03/09 08:17:51;;;;;;;4.10;1.10;;;;;;;12.97;64.55;97070.00;4997598;28;103052;-68
2023/03/09 08:20:20;;;;;;;3.40;1.57;;;;;;;13.48;63.97;97076.78;4990144;28;103081;-68
2023/03/09 08:22:48;;;;;;;5.03;1.67;;;;;;;13.35;64.39;97075.50;4992122;28;102793;-68
2023/03/09 08:25:18;;;;;;;4.40;1.57;;;;;;;13.24;63.89;97085.59;4995912;28;104235;-67
2023/03/09 08:27:47;;;;;;;3.07;0.90;;;;;;;13.43;64.38;97082.59;4996694;28;104075;-68
2023/03/09 08:30:20;;;;;;;3.37;0.93;;;;;;;13.33;64.55;97077.44;4994508;28;102997;-68
2023/03/09 08:32:53;;;;;;;2.27;0.87;;;;;;;13.53;64.14;97090.41;4995419;28;103798;-68
2023/03/09 08:35:23;;;;;;;4.93;1.17;;;;;;;13.77;64.07;97095.66;4994559;28;103945;-68
2023/03/09 08:37:51;;;;;;;2.60;1.50;;;;;;;13.74;63.00;97102.13;4997051;28;103165;-68
2023/03/09 08:40:20;;;;;;;3.23;1.03;;;;;;;14.02;62.27;97105.22;4990665;28;104308;-68
2023/03/09 08:42:49;;;;;;;3.33;1.30;;;;;;;13.28;64.11;97105.47;4994778;28;102718;-68
2023/03/09 08:45:18;;;;;;;3.73;1.20;;;;;;;13.07;65.37;97113.94;4991215;28;103066;-67
2023/03/09 08:47:45;;;;;;;3.23;0.90;;;;;;;12.91;66.54;97116.53;4993949;28;103176;-67
2023/03/09 08:50:14;;;;;;;5.23;1.03;;;;;;;12.98;66.78;97141.38;4994797;28;102652;-68
2023/03/09 08:52:42;;;;;;;4.30;1.20;;;;;;;12.92;66.69;97136.72;4995902;28;102868;-68
2023/03/09 08:55:11;;;;;;;6.23;1.30;;;;;;;13.32;65.82;97144.78;4991076;28;103988;-68
2023/03/09 08:57:39;;;;;;;4.40;1.10;;;;;;;13.50;65.78;97149.09;4996162;28;103412;-68
2023/03/09 09:00:12;;;;;;;3.20;1.17;;;;;;;13.39;67.05;97168.00;4997686;28;102689;-68
2023/03/09 09:02:41;;;;;;;2.90;1.13;;;;;;;13.48;67.64;97165.16;4996494;28;103170;-68
2023/03/09 09:05:09;;;;;;;2.80;1.00;;;;;;;13.17;68.80;97167.63;4989638;28;104146;-68
2023/03/09 09:07:38;;;;;;;4.30;0.90;;;;;;;12.92;70.02;97187.06;4995969;28;103003;-68
2023/03/09 09:10:07;;;;;;;2.70;0.87;;;;;;;12.54;71.19;97193.75;4995204;28;103124;-67
2023/03/09 09:12:41;;;;;;;3.67;1.00;;;;;;;12.47;72.09;97195.34;4993767;28;102730;-68
2023/03/09 09:15:13;;;;;;;3.53;1.00;;;;;;;12.30;72.90;97212.16;4997979;28;103274;-67
2023/03/09 09:17:42;;;;;;;5.20;1.20;;;;;;;12.54;72.10;97203.50;4996845;28;103187;-68
2023/03/09 09:20:11;;;;;;;3.23;0.97;;;;;;;12.68;72.87;97208.22;4992868;28;102776;-68
2023/03/09 09:22:41;;;;;;;2.13;0.90;;;;;;;12.57;74.13;97208.50;4996676;28;102757;-68
2023/03/09 09:25:10;;;;;;;4.40;1.00;;;;;;;12.79;74.46;97215.88;4997007;28;103036;-68
2023/03/09 09:27:38;;;;;;;3.10;1.30;;;;;;;12.66;73.07;97215.47;4998380;28;103822;-68
2023/03/09 09:30:09;;;;;;;2.90;0.83;;;;;;;12.87;72.40;97218.53;4995092;28;102720;-66
2023/03/09 09:32:40;;;;;;;2.13;0.83;;;;;;;12.98;71.11;97212.13;4997697;28;103082;-68
2023/03/09 09:35:10;;;;;;;2.73;0.80;;;;;;;13.47;71.11;97210.44;4994948;28;103469;-66
2023/03/09 09:37:40;;;;;;;2.10;0.70;;;;;;;13.52;70.31;97219.56;4992756;28;103260;-67
2023/03/09 09:40:12;;;;;;;1.73;0.70;;;;;;;13.57;70.54;97225.19;4998866;28;102689;-66
2023/03/09 09:42:43;;;;;;;3.10;0.93;;;;;;;13.36;70.97;97220.34;4997324;28;102731;-66
2023/03/09 09:45:26;;;;;;;2.33;0.80;;;;;;;13.39;70.36;97224.50;4996075;28;103296;-66
2023/03/09 09:47:57;;;;;;;2.40;0.80;;;;;;;13.78;69.45;97230.03;4994869;28;103203;-67
2023/03/09 09:50:37;;;;;;;1.97;0.77;;;;;;;13.56;71.14;97228.03;4996244;28;102619;-67
2023/03/09 09:53:13;;;;;;;2.33;0.87;;;;;;;13.43;70.37;97235.63;4999006;28;104101;-67
2023/03/09 09:55:44;;;;;;;1.67;0.60;;;;;;;13.36;70.76;97244.22;4997348;28;104132;-67
2023/03/09 09:58:24;;;;;;;3.87;0.93;;;;;;;13.24;71.52;97239.41;4989216;28;103237;-67
2023/03/09 10:00:55;;;;;;;2.03;0.60;;;;;;;13.19;70.12;97242.53;4992944;28;103143;-67
2023/03/09 10:03:28;;;;;;;2.93;0.73;;;;;;;13.46;70.41;97245.91;4994639;28;102946;-67
2023/03/09 10:05:59;;;;;;;2.83;0.77;;;;;;;13.38;70.93;97256.50;4990807;28;103225;-67
2023/03/09 10:08:35;;;;;;;3.00;1.00;;;;;;;13.44;70.86;97250.53;4992021;28;103267;-67
2023/03/09 10:11:11;;;;;;;1.87;1.00;;;;;;;13.24;70.80;97261.44;4992078;28;102814;-67
2023/03/09 10:13:43;;;;;;;1.77;0.90;;;;;;;13.03;70.07;97260.16;4996484;28;102719;-67
2023/03/09 10:16:17;;;;;;;2.60;1.00;;;;;;;13.10;70.80;97270.03;4996668;28;103211;-67
2023/03/09 10:18:51;;;;;;;2.37;0.90;;;;;;;12.98;71.77;97267.78;4991647;28;103399;-67
2023/03/09 10:21:24;;;;;;;2.30;0.93;;;;;;;13.26;71.57;97272.72;4995632;28;102668;-67
2023/03/09 10:23:56;;;;;;;2.33;0.70;;;;;;;12.92;71.50;97279.84;4995757;28;104135;-67
2023/03/09 10:26:39;;;;;;;1.83;0.80;;;;;;;12.92;71.85;97274.53;4994130;28;103290;-67
2023/03/09 10:29:17;;;;;;;2.63;0.90;;;;;;;12.89;71.56;97282.81;4994630;28;104026;-66
2023/03/09 10:31:53;;;;;;;1.03;0.57;;;;;;;13.07;71.87;97283.59;4994796;28;102698;-67
2023/03/09 10:34:24;;;;;;;5.03;1.13;;;;;;;12.72;72.22;97295.16;4994936;28;102663;-67
2023/03/09 10:37:01;;;;;;;1.53;0.80;;;;;;;13.07;72.11;97286.25;4996219;28;103230;-67
2023/03/09 10:39:39;;;;;;;1.57;0.67;;;;;;;13.15;71.63;97278.31;4992891;28;104136;-67
2023/03/09 10:42:18;;;;;;;2.70;1.20;;;;;;;13.43;70.47;97283.34;4994429;28;103716;-67
2023/03/09 10:44:58;;;;;;;3.17;0.90;;;;;;;13.52;69.54;97282.38;4997597;28;103911;-66
2023/03/09 10:47:26;;;;;;;3.80;0.90;;;;;;;13.15;68.72;97282.78;4995405;28;103782;-66
2023/03/09 10:50:10;;;;;;;1.83;0.80;;;;;;;13.36;67.91;97284.00;4997250;28;103224;-67
2023/03/09 10:52:52;;;;;;;5.20;1.30;;;;;;;14.01;67.60;97278.78;4994903;28;102740;-67
2023/03/09 10:55:39;;;;;;;1.53;0.60;;;;;;;14.77;65.31;97270.38;4996538;28;103062;-68
2023/03/09 10:58:16;;;;;;;1.83;0.93;;;;;;;14.74;65.08;97276.03;4993539;28;103230;-66
2023/03/09 11:00:57;;;;;;;2.27;0.80;;;;;;;14.51;63.48;97265.31;4992144;28;103001;-66
2023/03/09 11:03:31;;;;;;;3.13;1.00;;;;;;;14.80;62.95;97260.25;4995427;28;102838;-66
2023/03/09 11:06:34;;;;;;;2.23;0.80;;;;;;;15.17;60.82;97264.06;4992976;28;102812;-66
2023/03/09 11:09:13;;;;;;;4.93;1.23;;;;;;;15.16;60.31;97265.91;4989046;28;103304;-66
2023/03/09 11:11:46;;;;;;;5.37;1.10;;;;;;;14.97;60.53;97267.16;4995823;28;103291;-66
2023/03/09 11:14:23;;;;;;;4.80;0.90;;;;;;;15.34;61.52;97263.81;4999672;28;103701;-67
2023/03/09 11:16:53;;;;;;;3.83;0.80;;;;;;;14.83;61.06;97275.03;5000366;28;102635;-67
2023/03/09 11:19:21;;;;;;;3.63;0.90;;;;;;;15.39;61.25;97255.31;4995928;28;104020;-66
2023/03/09 11:22:00;;;;;;;3.53;1.10;;;;;;;15.68;59.26;97260.00;4997852;28;103196;-67
2023/03/09 11:24:35;;;;;;;3.80;0.93;;;;;;;15.40;59.97;97252.50;4996537;28;103194;-67
2023/03/09 11:27:07;;;;;;;5.63;1.30;;;;;;;15.77;58.71;97258.94;5001147;28;102722;-67
2023/03/09 11:29:51;;;;;;;7.00;1.20;;;;;;;15.58;59.36;97246.91;5000297;28;103309;-67
2023/03/09 11:32:19;;;;;;;3.27;1.10;;;;;;;15.52;60.02;97261.75;4999742;28;103254;-67
2023/03/09 11:34:48;;;;;;;2.67;0.80;;;;;;;15.44;58.85;97253.78;4999897;28;102625;-66
2023/03/09 11:37:24;;;;;;;3.60;1.27;;;;;;;15.82;59.15;97256.56;4989359;28;102642;-60
2023/03/09 11:39:58;;;;;;;5.15;1.15;;;;;;;15.77;57.98;97254.44;4999075;28;104008;-60
2023/03/09 11:42:34;;;;;;;4.50;1.37;;;;;;;15.70;58.75;97255.31;4991475;28;103201;-60